Time;durP1;ratioP1;P1;durP2;ratioP2;P2;SDS_P1;SDS_P2;PMS_P1;PMS_P2;Temp;Humidity;BMP_temperature;BMP_pressure;BME280_temperature;BME280_humidity;BME280_pressure;Samples;Min_cycle;Max_cycle;Signal;HPM_P1;HPM_P2
2022/10/13 00:01:42;;;;;;;16.97;10.53;;;;;;;;;;1723118;83;21517;-74
2022/10/13 00:04:09;;;;;;;19.52;10.35;;;;;;;;;;1721405;83;21060;-75
2022/10/13 00:06:36;;;;;;;19.40;10.75;;;;;;;;;;1706201;83;21053;-75
2022/10/13 00:09:02;;;;;;;16.48;9.73;;;;;;;;;;1680594;84;20977;-74
2022/10/13 00:11:30;;;;;;;21.77;10.08;;;;;;;;;;1714222;83;21052;-74
2022/10/13 00:13:57;;;;;;;19.07;10.20;;;;;;;;;;1690046;84;21077;-74
2022/10/13 00:16:23;;;;;;;19.10;10.13;;;;;;;;;;1686945;85;20954;-74
2022/10/13 00:18:50;;;;;;;19.17;10.25;;;;;;;;;;1722456;83;21036;-73
2022/10/13 00:21:17;;;;;;;20.08;9.98;;;;;;;;;;1709828;83;21001;-75
2022/10/13 00:23:45;;;;;;;22.62;10.48;;;;;;;;;;1715203;83;21072;-75
2022/10/13 00:26:13;;;;;;;18.92;9.95;;;;;;;;;;1722655;83;21471;-75
2022/10/13 00:28:39;;;;;;;17.82;10.23;;;;;;;;;;1723516;83;21012;-75
2022/10/13 00:31:16;;;;;;;16.73;9.40;;;;;;;;;;1689948;85;21052;-74
2022/10/13 00:33:42;;;;;;;18.15;9.85;;;;;;;;;;1723698;83;21060;-75
2022/10/13 00:36:08;;;;;;;21.37;9.60;;;;;;;;;;1705207;83;21518;-74
2022/10/13 00:38:34;;;;;;;18.80;9.95;;;;;;;;;;1663749;86;21003;-74
2022/10/13 00:41:02;;;;;;;19.62;10.43;;;;;;;;;;1713882;83;21033;-75
2022/10/13 00:43:47;;;;;;;21.37;12.07;;;;;;;;;;1691479;85;21548;-74
2022/10/13 00:46:14;;;;;;;19.70;11.30;;;;;;;;;;1685951;83;22120;-75
2022/10/13 00:48:39;;;;;;;16.05;9.45;;;;;;;;;;1722898;81;21037;-74
2022/10/13 00:51:06;;;;;;;21.02;11.20;;;;;;;;;;1720854;83;21024;-74
2022/10/13 00:53:33;;;;;;;18.57;10.82;;;;;;;;;;1697835;83;21053;-74
2022/10/13 00:56:00;;;;;;;23.38;12.18;;;;;;;;;;1690522;85;21540;-75
2022/10/13 00:58:30;;;;;;;21.57;11.65;;;;;;;;;;1723243;83;21020;-75
2022/10/13 01:00:54;;;;;;;19.92;11.63;;;;;;;;;;1691586;84;21687;-76
2022/10/13 01:03:20;;;;;;;18.65;10.15;;;;;;;;;;1717336;83;21013;-78
2022/10/13 01:05:46;;;;;;;21.35;10.65;;;;;;;;;;1707524;83;21062;-78
2022/10/13 01:08:13;;;;;;;20.92;11.48;;;;;;;;;;1691387;84;21022;-76
2022/10/13 01:10:58;;;;;;;21.10;11.68;;;;;;;;;;1671473;85;21076;-76
2022/10/13 01:13:26;;;;;;;22.05;11.22;;;;;;;;;;1703427;83;21072;-75
2022/10/13 01:15:57;;;;;;;18.42;11.00;;;;;;;;;;1709385;83;21037;-75
2022/10/13 01:18:25;;;;;;;19.10;10.00;;;;;;;;;;1705666;83;21029;-74
2022/10/13 01:20:54;;;;;;;20.75;11.03;;;;;;;;;;1720700;83;21032;-74
2022/10/13 01:23:31;;;;;;;19.05;10.10;;;;;;;;;;1709707;83;20981;-74
2022/10/13 01:26:17;;;;;;;16.75;10.48;;;;;;;;;;1715271;83;21589;-75
2022/10/13 01:28:48;;;;;;;20.02;10.48;;;;;;;;;;1704145;83;21577;-74
2022/10/13 01:31:16;;;;;;;17.75;10.30;;;;;;;;;;1728343;81;21145;-73
2022/10/13 01:33:45;;;;;;;16.60;9.30;;;;;;;;;;1740644;81;21087;-73
2022/10/13 01:36:18;;;;;;;18.20;10.58;;;;;;;;;;1722642;83;21104;-73
2022/10/13 01:39:04;;;;;;;22.62;9.85;;;;;;;;;;1723756;83;21112;-72
2022/10/13 01:41:36;;;;;;;15.80;9.55;;;;;;;;;;1724047;83;21073;-72
2022/10/13 01:44:21;;;;;;;18.90;10.08;;;;;;;;;;1717238;83;21044;-72
2022/10/13 01:46:49;;;;;;;18.67;9.13;;;;;;;;;;1722385;83;21072;-73
2022/10/13 01:49:16;;;;;;;21.82;11.12;;;;;;;;;;1695992;84;21519;-73
2022/10/13 01:51:43;;;;;;;16.10;9.55;;;;;;;;;;1702896;82;21091;-73
2022/10/13 01:54:10;;;;;;;17.40;9.65;;;;;;;;;;1700357;84;21051;-74
2022/10/13 01:56:36;;;;;;;20.68;10.48;;;;;;;;;;1701261;83;21024;-74
2022/10/13 01:59:04;;;;;;;19.37;9.50;;;;;;;;;;1700123;84;21000;-76
2022/10/13 02:04:24;;;;;;;22.13;9.65;;;;;;;;;;1684100;80;74337;-72
2022/10/13 02:06:54;;;;;;;17.10;9.43;;;;;;;;;;1739012;81;21058;-71
2022/10/13 02:09:27;;;;;;;17.15;8.90;;;;;;;;;;1704206;83;21022;-71
2022/10/13 02:12:01;;;;;;;20.30;10.25;;;;;;;;;;1757318;80;20981;-72
2022/10/13 02:14:29;;;;;;;16.62;8.93;;;;;;;;;;1752658;80;21580;-72
2022/10/13 02:16:58;;;;;;;18.02;8.68;;;;;;;;;;1758210;80;21091;-72
2022/10/13 02:19:24;;;;;;;18.62;9.05;;;;;;;;;;1783788;80;21131;-71
2022/10/13 02:21:52;;;;;;;16.85;8.53;;;;;;;;;;1755649;80;21108;-70
2022/10/13 02:24:19;;;;;;;20.65;10.23;;;;;;;;;;1752626;80;21045;-71
2022/10/13 02:26:47;;;;;;;20.05;9.75;;;;;;;;;;1753230;82;21057;-71
2022/10/13 02:29:14;;;;;;;19.90;10.32;;;;;;;;;;1760910;80;20993;-71
2022/10/13 02:31:42;;;;;;;15.80;9.35;;;;;;;;;;1756182;80;21047;-71
2022/10/13 02:34:08;;;;;;;17.52;9.68;;;;;;;;;;1760197;80;20985;-71
2022/10/13 02:36:37;;;;;;;15.20;8.20;;;;;;;;;;1753131;82;21103;-71
2022/10/13 02:39:04;;;;;;;16.82;9.18;;;;;;;;;;1752828;81;21499;-70
2022/10/13 02:41:30;;;;;;;21.02;10.30;;;;;;;;;;1750583;82;21194;-71
2022/10/13 02:43:56;;;;;;;23.47;10.20;;;;;;;;;;1755514;80;21020;-70
2022/10/13 02:46:24;;;;;;;16.93;9.90;;;;;;;;;;1754466;80;21067;-71
2022/10/13 02:48:50;;;;;;;20.17;10.13;;;;;;;;;;1752716;80;20985;-72
2022/10/13 02:51:17;;;;;;;19.30;10.00;;;;;;;;;;1757894;80;21044;-72
2022/10/13 02:53:43;;;;;;;20.35;9.73;;;;;;;;;;1762222;80;21001;-72
2022/10/13 02:56:08;;;;;;;19.23;9.50;;;;;;;;;;1772990;80;22079;-73
2022/10/13 02:58:36;;;;;;;20.62;10.18;;;;;;;;;;1753397;81;21045;-73
2022/10/13 03:01:09;;;;;;;18.37;9.45;;;;;;;;;;1753048;81;21033;-73
2022/10/13 03:03:35;;;;;;;16.25;9.45;;;;;;;;;;1758265;80;21064;-73
2022/10/13 03:06:01;;;;;;;20.50;9.90;;;;;;;;;;1745523;82;21531;-72
2022/10/13 03:08:28;;;;;;;16.07;9.25;;;;;;;;;;1725152;82;21056;-73
2022/10/13 03:10:54;;;;;;;20.05;9.18;;;;;;;;;;1706539;82;20993;-72
2022/10/13 03:13:20;;;;;;;17.30;9.23;;;;;;;;;;1728020;82;21043;-72
2022/10/13 03:15:46;;;;;;;17.90;9.45;;;;;;;;;;1727320;82;21024;-72
2022/10/13 03:18:13;;;;;;;17.00;9.40;;;;;;;;;;1704671;84;21075;-72
2022/10/13 03:20:39;;;;;;;17.70;9.33;;;;;;;;;;1705030;83;21048;-72
2022/10/13 03:23:08;;;;;;;16.82;9.65;;;;;;;;;;1680366;84;21131;-72
2022/10/13 03:25:34;;;;;;;16.20;8.68;;;;;;;;;;1690687;84;21004;-72
2022/10/13 03:28:02;;;;;;;18.27;9.35;;;;;;;;;;1683611;84;21893;-72
2022/10/13 03:30:28;;;;;;;16.77;9.25;;;;;;;;;;1747356;82;21036;-72
2022/10/13 03:32:54;;;;;;;17.32;9.13;;;;;;;;;;1743656;82;20983;-72
2022/10/13 03:35:20;;;;;;;16.42;8.98;;;;;;;;;;1743281;82;21001;-72
2022/10/13 03:37:47;;;;;;;17.45;9.18;;;;;;;;;;1740346;82;21098;-72
2022/10/13 03:40:13;;;;;;;17.17;9.33;;;;;;;;;;1744303;82;20992;-72
2022/10/13 03:42:38;;;;;;;17.30;8.88;;;;;;;;;;1728090;82;21048;-72
2022/10/13 03:45:05;;;;;;;18.42;9.80;;;;;;;;;;1736283;82;21064;-72
2022/10/13 03:47:36;;;;;;;14.90;8.78;;;;;;;;;;1701591;83;21094;-72
2022/10/13 03:50:03;;;;;;;18.75;9.70;;;;;;;;;;1697311;84;21496;-72
2022/10/13 03:52:29;;;;;;;16.17;8.93;;;;;;;;;;1706742;83;21067;-72
2022/10/13 03:54:56;;;;;;;20.52;9.08;;;;;;;;;;1733639;82;21050;-72
2022/10/13 03:57:22;;;;;;;15.53;8.83;;;;;;;;;;1726340;82;21145;-73
2022/10/13 03:59:49;;;;;;;17.12;9.18;;;;;;;;;;1730424;82;21059;-72
2022/10/13 04:02:15;;;;;;;15.78;8.53;;;;;;;;;;1737299;82;21048;-73
2022/10/13 04:04:42;;;;;;;18.35;9.28;;;;;;;;;;1739942;82;21052;-72
2022/10/13 04:07:08;;;;;;;16.67;8.10;;;;;;;;;;1745002;82;21006;-73
2022/10/13 04:09:34;;;;;;;14.20;8.25;;;;;;;;;;1701215;82;21570;-73
2022/10/13 04:12:02;;;;;;;17.30;8.83;;;;;;;;;;1733911;82;21050;-72
2022/10/13 04:14:28;;;;;;;15.45;8.65;;;;;;;;;;1729397;82;21102;-73
2022/10/13 04:16:56;;;;;;;16.73;8.43;;;;;;;;;;1732123;82;21103;-72
2022/10/13 04:19:24;;;;;;;15.03;8.60;;;;;;;;;;1726724;82;21025;-71
2022/10/13 04:21:51;;;;;;;17.48;7.78;;;;;;;;;;1727565;82;21095;-72
2022/10/13 04:24:18;;;;;;;19.40;9.03;;;;;;;;;;1732176;82;21556;-72
2022/10/13 04:26:45;;;;;;;15.50;8.48;;;;;;;;;;1728292;82;21032;-72
2022/10/13 04:29:11;;;;;;;15.80;8.83;;;;;;;;;;1721114;82;21024;-73
2022/10/13 04:31:38;;;;;;;16.35;8.53;;;;;;;;;;1727005;82;20988;-73
2022/10/13 04:34:04;;;;;;;26.35;8.98;;;;;;;;;;1723906;82;21014;-70
2022/10/13 04:36:30;;;;;;;18.07;9.35;;;;;;;;;;1717569;82;21013;-70
2022/10/13 04:38:56;;;;;;;15.35;8.98;;;;;;;;;;1729444;82;21032;-73
2022/10/13 04:41:21;;;;;;;16.77;9.55;;;;;;;;;;1709295;82;21480;-72
2022/10/13 04:43:48;;;;;;;17.95;8.53;;;;;;;;;;1707235;82;21052;-72
2022/10/13 04:46:16;;;;;;;20.10;9.50;;;;;;;;;;1721905;83;21060;-72
2022/10/13 04:48:42;;;;;;;17.00;8.35;;;;;;;;;;1733007;82;20969;-71
2022/10/13 04:51:10;;;;;;;18.85;8.55;;;;;;;;;;1751542;82;21028;-72
2022/10/13 04:53:36;;;;;;;21.97;8.78;;;;;;;;;;1742822;82;21047;-72
2022/10/13 04:56:04;;;;;;;12.80;7.75;;;;;;;;;;1731430;82;21036;-73
2022/10/13 04:58:30;;;;;;;18.15;8.73;;;;;;;;;;1725594;82;21005;-72
2022/10/13 05:00:58;;;;;;;14.68;7.83;;;;;;;;;;1730839;82;21076;-72
2022/10/13 05:03:24;;;;;;;14.20;7.85;;;;;;;;;;1741965;82;21014;-71
2022/10/13 05:05:51;;;;;;;15.80;7.92;;;;;;;;;;1727149;82;20965;-72
2022/10/13 05:08:18;;;;;;;14.05;7.37;;;;;;;;;;1723328;82;21053;-73
2022/10/13 05:10:58;;;;;;;24.12;13.43;;;;;;;;;;1719006;83;21056;-71
2022/10/13 05:13:25;;;;;;;23.45;9.18;;;;;;;;;;1721166;83;22069;-71
2022/10/13 05:15:52;;;;;;;27.50;10.60;;;;;;;;;;1721571;82;21086;-71
2022/10/13 05:18:20;;;;;;;18.23;8.80;;;;;;;;;;1721719;83;21011;-72
2022/10/13 05:20:48;;;;;;;17.95;9.08;;;;;;;;;;1706395;83;21357;-73
2022/10/13 05:23:14;;;;;;;23.25;9.40;;;;;;;;;;1698882;82;20978;-72
2022/10/13 05:25:40;;;;;;;18.12;8.28;;;;;;;;;;1730717;82;21024;-72
2022/10/13 05:28:08;;;;;;;16.23;8.58;;;;;;;;;;1730052;82;21039;-73
2022/10/13 05:30:34;;;;;;;14.65;8.13;;;;;;;;;;1712036;82;21556;-73
2022/10/13 05:33:01;;;;;;;15.18;7.70;;;;;;;;;;1733919;83;21034;-73
2022/10/13 05:35:27;;;;;;;17.23;8.35;;;;;;;;;;1720995;82;21016;-73
2022/10/13 05:37:53;;;;;;;16.55;8.05;;;;;;;;;;1716273;82;22180;-73
2022/10/13 05:40:27;;;;;;;14.47;7.47;;;;;;;;;;1737909;82;21056;-72
2022/10/13 05:42:52;;;;;;;17.60;8.50;;;;;;;;;;1734387;82;21524;-72
2022/10/13 05:45:18;;;;;;;16.25;7.70;;;;;;;;;;1727936;82;21004;-70
2022/10/13 05:47:44;;;;;;;12.65;7.42;;;;;;;;;;1731928;82;21021;-72
2022/10/13 05:50:10;;;;;;;14.50;7.72;;;;;;;;;;1731026;82;21013;-71
2022/10/13 05:52:38;;;;;;;19.55;8.35;;;;;;;;;;1720483;82;21020;-72
2022/10/13 05:55:05;;;;;;;15.85;7.53;;;;;;;;;;1729232;82;21063;-72
2022/10/13 05:57:39;;;;;;;19.52;8.95;;;;;;;;;;1719252;82;21045;-73
2022/10/13 06:00:10;;;;;;;18.48;7.53;;;;;;;;;;1727833;82;21013;-71
2022/10/13 06:02:40;;;;;;;14.70;7.47;;;;;;;;;;1731942;82;21067;-71
2022/10/13 06:05:07;;;;;;;16.27;6.92;;;;;;;;;;1734404;83;21009;-71
2022/10/13 06:07:35;;;;;;;18.25;7.90;;;;;;;;;;1732611;82;21275;-73
2022/10/13 06:10:00;;;;;;;18.85;8.25;;;;;;;;;;1701199;83;21502;-72
2022/10/13 06:12:28;;;;;;;15.60;8.00;;;;;;;;;;1723335;82;21012;-72
2022/10/13 06:14:56;;;;;;;14.98;7.62;;;;;;;;;;1695872;83;21020;-72
2022/10/13 06:17:22;;;;;;;28.47;8.70;;;;;;;;;;1733546;82;21582;-70
2022/10/13 06:19:48;;;;;;;17.67;9.10;;;;;;;;;;1712352;82;21013;-72
2022/10/13 06:22:14;;;;;;;23.98;9.23;;;;;;;;;;1714177;82;21055;-71
2022/10/13 06:24:40;;;;;;;21.90;9.65;;;;;;;;;;1742980;82;21822;-71
2022/10/13 06:27:09;;;;;;;21.65;9.30;;;;;;;;;;1758937;81;21048;-72
2022/10/13 06:29:36;;;;;;;21.95;9.40;;;;;;;;;;1725633;82;21539;-71
2022/10/13 06:32:02;;;;;;;15.53;9.33;;;;;;;;;;1725165;82;21024;-71
2022/10/13 06:34:28;;;;;;;25.50;9.90;;;;;;;;;;1728639;82;21024;-70
2022/10/13 06:36:54;;;;;;;21.42;10.15;;;;;;;;;;1706783;83;21077;-71
2022/10/13 06:39:20;;;;;;;23.27;10.10;;;;;;;;;;1675152;84;20998;-70
2022/10/13 06:41:47;;;;;;;20.97;10.20;;;;;;;;;;1672842;84;21102;-71
2022/10/13 06:44:13;;;;;;;23.27;11.70;;;;;;;;;;1645259;84;21133;-71
2022/10/13 06:46:39;;;;;;;20.75;10.63;;;;;;;;;;1710198;82;21068;-71
2022/10/13 06:49:05;;;;;;;24.27;11.97;;;;;;;;;;1694744;84;21081;-72
2022/10/13 06:51:32;;;;;;;19.87;11.28;;;;;;;;;;1662601;84;21037;-71
2022/10/13 06:53:58;;;;;;;24.95;12.28;;;;;;;;;;1725301;81;21031;-72
2022/10/13 06:56:25;;;;;;;22.67;11.78;;;;;;;;;;1727545;81;21048;-70
2022/10/13 06:58:51;;;;;;;23.30;12.07;;;;;;;;;;1728065;81;21087;-72
2022/10/13 07:01:17;;;;;;;30.48;11.20;;;;;;;;;;1724778;81;21040;-71
2022/10/13 07:03:43;;;;;;;21.62;11.28;;;;;;;;;;1729799;81;21562;-71
2022/10/13 07:06:11;;;;;;;20.40;10.63;;;;;;;;;;1726384;81;21052;-66
2022/10/13 07:08:37;;;;;;;17.92;10.70;;;;;;;;;;1725428;81;21777;-66
2022/10/13 07:11:08;;;;;;;19.50;11.00;;;;;;;;;;1723548;82;21071;-67
2022/10/13 07:13:34;;;;;;;22.87;9.88;;;;;;;;;;1739967;81;21055;-67
2022/10/13 07:16:03;;;;;;;13.93;8.50;;;;;;;;;;1722584;81;21055;-71
2022/10/13 07:18:30;;;;;;;23.42;9.28;;;;;;;;;;1723125;82;21080;-69
2022/10/13 07:20:57;;;;;;;20.00;7.55;;;;;;;;;;1724094;81;21122;-75
2022/10/13 07:23:23;;;;;;;18.67;7.65;;;;;;;;;;1763929;81;21026;-67
2022/10/13 07:25:50;;;;;;;22.62;8.28;;;;;;;;;;1758087;81;21571;-67
2022/10/13 07:28:16;;;;;;;18.45;8.25;;;;;;;;;;1723573;82;21540;-68
2022/10/13 07:30:43;;;;;;;12.90;7.33;;;;;;;;;;1733625;81;21922;-68
2022/10/13 07:33:10;;;;;;;15.95;7.62;;;;;;;;;;1725918;81;21098;-70
2022/10/13 07:35:39;;;;;;;13.45;7.42;;;;;;;;;;1726935;81;21536;-70
2022/10/13 07:38:05;;;;;;;17.65;7.10;;;;;;;;;;1732383;82;21083;-69
2022/10/13 07:40:32;;;;;;;13.83;6.90;;;;;;;;;;1724352;83;21064;-69
2022/10/13 07:42:59;;;;;;;12.23;7.12;;;;;;;;;;1738866;82;21028;-69
2022/10/13 07:45:25;;;;;;;13.28;6.90;;;;;;;;;;1735506;82;21100;-69
2022/10/13 07:47:51;;;;;;;11.60;7.15;;;;;;;;;;1728981;82;21079;-69
2022/10/13 07:50:18;;;;;;;15.80;8.15;;;;;;;;;;1705440;82;21539;-69
2022/10/13 07:52:44;;;;;;;14.53;7.40;;;;;;;;;;1710467;82;21036;-69
2022/10/13 07:55:11;;;;;;;13.13;6.37;;;;;;;;;;1707269;82;21598;-69
2022/10/13 07:57:37;;;;;;;16.90;7.40;;;;;;;;;;1706483;83;21093;-69
2022/10/13 08:00:04;;;;;;;18.90;6.60;;;;;;;;;;1718119;82;21059;-68
2022/10/13 08:02:33;;;;;;;13.88;6.75;;;;;;;;;;1709403;82;21092;-70
2022/10/13 08:05:02;;;;;;;16.67;6.97;;;;;;;;;;1709280;82;21115;-70
2022/10/13 08:07:28;;;;;;;15.35;7.45;;;;;;;;;;1710141;82;21123;-69
2022/10/13 08:09:54;;;;;;;16.60;8.63;;;;;;;;;;1704574;82;21084;-69
2022/10/13 08:12:23;;;;;;;23.47;8.73;;;;;;;;;;1705909;82;21020;-69
2022/10/13 08:14:50;;;;;;;15.38;7.20;;;;;;;;;;1703725;82;21036;-69
2022/10/13 08:17:16;;;;;;;17.92;8.45;;;;;;;;;;1702147;82;22311;-68
2022/10/13 08:19:42;;;;;;;20.25;8.40;;;;;;;;;;1706721;82;21043;-69
2022/10/13 08:22:09;;;;;;;13.00;8.45;;;;;;;;;;1702670;82;21040;-67
2022/10/13 08:24:36;;;;;;;19.80;8.60;;;;;;;;;;1704110;82;21567;-67
2022/10/13 08:27:02;;;;;;;19.25;8.40;;;;;;;;;;1711675;82;21032;-67
2022/10/13 08:29:30;;;;;;;18.65;8.55;;;;;;;;;;1705452;82;21104;-66
2022/10/13 08:31:56;;;;;;;15.90;8.15;;;;;;;;;;1708019;82;21075;-67
2022/10/13 08:34:23;;;;;;;14.70;8.50;;;;;;;;;;1702421;82;21123;-67
2022/10/13 08:36:51;;;;;;;18.15;7.50;;;;;;;;;;1707082;82;22255;-67
2022/10/13 08:39:20;;;;;;;20.40;7.70;;;;;;;;;;1708597;82;21583;-65
2022/10/13 08:41:46;;;;;;;19.45;8.95;;;;;;;;;;1712662;82;21056;-67
2022/10/13 08:44:13;;;;;;;19.17;8.60;;;;;;;;;;1712846;82;21069;-70
2022/10/13 08:46:48;;;;;;;12.55;7.75;;;;;;;;;;1721168;82;21481;-70
2022/10/13 08:49:15;;;;;;;19.87;8.93;;;;;;;;;;1715173;82;21571;-67
2022/10/13 08:51:41;;;;;;;19.45;9.25;;;;;;;;;;1720254;82;20981;-70
2022/10/13 08:54:10;;;;;;;20.97;10.58;;;;;;;;;;1735706;82;21148;-69
2022/10/13 08:56:36;;;;;;;29.48;11.97;;;;;;;;;;1736471;82;21492;-66
2022/10/13 08:59:03;;;;;;;26.73;11.95;;;;;;;;;;1737017;82;21547;-69
2022/10/13 09:01:30;;;;;;;29.92;11.48;;;;;;;;;;1734825;82;21124;-71
2022/10/13 09:04:08;;;;;;;18.92;8.98;;;;;;;;;;1720575;82;21028;-69
2022/10/13 09:06:52;;;;;;;19.87;8.40;;;;;;;;;;1723208;82;21077;-68
2022/10/13 09:09:20;;;;;;;20.77;9.65;;;;;;;;;;1679731;83;21029;-67
2022/10/13 09:11:48;;;;;;;20.00;9.88;;;;;;;;;;1706015;83;21033;-71
2022/10/13 09:14:26;;;;;;;18.12;9.38;;;;;;;;;;1677407;84;21063;-68
2022/10/13 09:16:55;;;;;;;24.27;9.98;;;;;;;;;;1694597;84;21373;-67
2022/10/13 09:19:26;;;;;;;19.65;9.93;;;;;;;;;;1696940;83;21040;-68
2022/10/13 09:21:55;;;;;;;14.00;6.00;;;;;;;;;;1702061;83;21056;-67
2022/10/13 09:24:22;;;;;;;12.75;5.78;;;;;;;;;;1699314;83;20992;-68
2022/10/13 09:26:50;;;;;;;13.95;5.40;;;;;;;;;;1694030;83;22293;-68
2022/10/13 09:29:18;;;;;;;12.63;5.60;;;;;;;;;;1697887;83;21067;-67
2022/10/13 09:31:46;;;;;;;11.40;5.45;;;;;;;;;;1698085;83;21056;-67
2022/10/13 09:34:16;;;;;;;9.30;5.50;;;;;;;;;;1696810;83;21027;-69
2022/10/13 09:36:57;;;;;;;8.98;4.70;;;;;;;;;;1695717;83;21567;-67
2022/10/13 09:39:25;;;;;;;8.70;4.72;;;;;;;;;;1684974;83;21055;-69
2022/10/13 09:41:53;;;;;;;14.15;5.35;;;;;;;;;;1705635;83;21059;-64
2022/10/13 09:44:28;;;;;;;12.95;5.08;;;;;;;;;;1675283;84;21041;-62
2022/10/13 09:46:57;;;;;;;11.12;5.42;;;;;;;;;;1651620;84;21321;-65
2022/10/13 09:49:27;;;;;;;13.60;5.92;;;;;;;;;;1688975;84;21056;-65
2022/10/13 09:51:56;;;;;;;12.45;5.67;;;;;;;;;;1676723;84;21031;-64
2022/10/13 09:54:24;;;;;;;12.65;5.90;;;;;;;;;;1673122;84;21075;-64
2022/10/13 09:56:55;;;;;;;7.72;4.12;;;;;;;;;;1627532;86;21083;-64
2022/10/13 09:59:25;;;;;;;11.63;4.17;;;;;;;;;;1694120;83;21064;-65
2022/10/13 10:01:53;;;;;;;12.65;5.15;;;;;;;;;;1698872;83;21578;-64
2022/10/13 10:04:23;;;;;;;8.80;4.60;;;;;;;;;;1696326;84;21057;-65
2022/10/13 10:06:49;;;;;;;10.13;4.28;;;;;;;;;;1693401;83;21027;-69
2022/10/13 10:09:35;;;;;;;10.53;4.80;;;;;;;;;;1712223;82;21056;-67
2022/10/13 10:12:02;;;;;;;10.88;4.60;;;;;;;;;;1730193;81;21532;-67
2022/10/13 10:14:34;;;;;;;13.80;5.25;;;;;;;;;;1737681;81;21054;-67
2022/10/13 10:17:18;;;;;;;9.33;4.65;;;;;;;;;;1737076;82;21009;-64
2022/10/13 10:19:53;;;;;;;8.43;4.90;;;;;;;;;;1726416;81;21114;-64
2022/10/13 10:22:28;;;;;;;10.35;4.55;;;;;;;;;;1725083;81;21078;-65
2022/10/13 10:25:13;;;;;;;13.08;4.80;;;;;;;;;;1725828;81;21475;-64
2022/10/13 10:27:42;;;;;;;12.20;4.45;;;;;;;;;;1724869;81;21071;-64
2022/10/13 10:30:10;;;;;;;14.25;4.37;;;;;;;;;;1722956;81;21028;-60
2022/10/13 10:32:44;;;;;;;9.40;4.33;;;;;;;;;;1737482;81;21000;-62
2022/10/13 10:35:12;;;;;;;9.55;4.28;;;;;;;;;;1739710;81;21047;-68
2022/10/13 10:37:57;;;;;;;9.18;3.75;;;;;;;;;;1744533;81;21039;-67
2022/10/13 10:40:28;;;;;;;10.10;4.08;;;;;;;;;;1736372;81;21052;-67
2022/10/13 10:43:02;;;;;;;6.67;3.67;;;;;;;;;;1699121;83;21117;-67
2022/10/13 10:45:36;;;;;;;11.95;4.40;;;;;;;;;;1696411;83;21462;-66
2022/10/13 10:48:07;;;;;;;10.13;4.53;;;;;;;;;;1727971;83;21071;-67
2022/10/13 10:50:33;;;;;;;11.28;4.60;;;;;;;;;;1668047;85;21013;-67
2022/10/13 10:53:01;;;;;;;9.13;4.62;;;;;;;;;;1701748;83;22212;-68
2022/10/13 10:55:39;;;;;;;13.88;5.37;;;;;;;;;;1725933;82;21599;-68
2022/10/13 10:58:16;;;;;;;14.23;6.40;;;;;;;;;;1710609;82;21706;-68
2022/10/13 11:00:51;;;;;;;14.65;5.65;;;;;;;;;;1693575;82;21572;-69
2022/10/13 11:05:22;;;;;;;10.45;5.15;;;;;;;;;;1801425;79;22885;-68
2022/10/13 11:07:53;;;;;;;10.48;5.42;;;;;;;;;;1760431;80;21556;-67
2022/10/13 11:10:20;;;;;;;11.97;5.25;;;;;;;;;;1765394;80;21012;-70
2022/10/13 11:12:49;;;;;;;11.95;5.53;;;;;;;;;;1757881;80;20997;-68
2022/10/13 11:15:23;;;;;;;19.02;6.75;;;;;;;;;;1755504;80;21087;-69
2022/10/13 11:17:49;;;;;;;;;;;;;;;;;;1745372;80;20992;-68
2022/10/13 11:20:18;;;;;;;10.20;5.85;;;;;;;;;;1758691;80;20458;-68
2022/10/13 11:22:59;;;;;;;11.10;5.67;;;;;;;;;;1756541;80;21097;-68
2022/10/13 11:25:38;;;;;;;12.85;5.67;;;;;;;;;;1768608;80;21475;-68
2022/10/13 11:28:26;;;;;;;9.90;5.40;;;;;;;;;;1757053;80;21008;-70
2022/10/13 11:30:54;;;;;;;12.15;4.78;;;;;;;;;;1763999;80;21480;-69
2022/10/13 11:33:40;;;;;;;11.40;5.22;;;;;;;;;;1750545;80;21531;-70
2022/10/13 11:36:25;;;;;;;10.15;4.83;;;;;;;;;;1761610;80;21028;-69
2022/10/13 11:38:51;;;;;;;11.08;4.55;;;;;;;;;;1764568;80;20996;-67
2022/10/13 11:41:18;;;;;;;11.43;4.92;;;;;;;;;;1763176;80;21004;-69
2022/10/13 11:43:47;;;;;;;7.95;4.92;;;;;;;;;;1758115;80;21500;-69
2022/10/13 11:46:20;;;;;;;7.97;4.28;;;;;;;;;;1772653;81;20977;-68
2022/10/13 11:49:07;;;;;;;11.03;4.75;;;;;;;;;;1765890;80;21615;-69
2022/10/13 11:51:36;;;;;;;9.50;4.62;;;;;;;;;;1761800;80;21512;-70
2022/10/13 11:54:07;;;;;;;10.13;4.08;;;;;;;;;;1778407;80;21511;-68
2022/10/13 11:56:35;;;;;;;11.38;4.33;;;;;;;;;;1782129;80;21052;-68
2022/10/13 11:59:01;;;;;;;8.70;4.90;;;;;;;;;;1742583;80;21135;-70
2022/10/13 12:01:29;;;;;;;12.60;4.35;;;;;;;;;;1724502;82;21377;-69
2022/10/13 12:03:56;;;;;;;8.43;4.80;;;;;;;;;;1722904;82;21078;-69
2022/10/13 12:06:32;;;;;;;10.13;4.47;;;;;;;;;;1718219;83;21053;-69
2022/10/13 12:09:04;;;;;;;10.03;4.80;;;;;;;;;;1709514;82;21002;-69
2022/10/13 12:11:32;;;;;;;11.40;5.15;;;;;;;;;;1715864;82;21007;-69
2022/10/13 12:13:59;;;;;;;9.73;4.95;;;;;;;;;;1728824;82;21041;-71
2022/10/13 12:16:25;;;;;;;12.23;4.75;;;;;;;;;;1710609;82;20977;-72
2022/10/13 12:18:53;;;;;;;10.35;4.62;;;;;;;;;;1717757;83;21592;-68
2022/10/13 12:21:20;;;;;;;9.18;4.22;;;;;;;;;;1707205;83;21009;-68
2022/10/13 12:23:47;;;;;;;10.55;4.90;;;;;;;;;;1728122;82;21021;-69
2022/10/13 12:26:18;;;;;;;7.17;3.98;;;;;;;;;;1719663;82;21556;-68
2022/10/13 12:28:46;;;;;;;10.65;5.20;;;;;;;;;;1714039;82;21103;-68
2022/10/13 12:31:25;;;;;;;11.12;4.83;;;;;;;;;;1709118;82;21053;-68
2022/10/13 12:33:54;;;;;;;47.45;11.97;;;;;;;;;;1718763;82;21070;-70
2022/10/13 12:36:21;;;;;;;43.28;12.28;;;;;;;;;;1717352;82;21044;-68
2022/10/13 12:38:48;;;;;;;70.92;16.27;;;;;;;;;;1716048;82;21667;-68
2022/10/13 12:41:17;;;;;;;46.25;10.68;;;;;;;;;;1717266;82;21512;-68
2022/10/13 12:43:43;;;;;;;58.40;13.43;;;;;;;;;;1721236;82;21576;-67
2022/10/13 12:46:10;;;;;;;14.65;4.62;;;;;;;;;;1716301;82;21059;-68
2022/10/13 12:48:43;;;;;;;25.77;7.58;;;;;;;;;;1728972;82;21484;-70
2022/10/13 12:51:10;;;;;;;23.32;6.83;;;;;;;;;;1728715;82;21033;-67
2022/10/13 12:53:38;;;;;;;12.23;5.65;;;;;;;;;;1713235;82;21030;-69
2022/10/13 12:56:04;;;;;;;10.85;4.92;;;;;;;;;;1716571;82;21056;-69
2022/10/13 12:58:31;;;;;;;10.58;4.50;;;;;;;;;;1718946;82;21566;-69
2022/10/13 13:01:08;;;;;;;24.18;7.47;;;;;;;;;;1708652;82;21060;-67
2022/10/13 13:03:36;;;;;;;38.85;9.78;;;;;;;;;;1707334;82;21012;-68
2022/10/13 13:06:07;;;;;;;16.48;6.05;;;;;;;;;;1730161;81;21058;-67
2022/10/13 13:08:33;;;;;;;30.25;8.10;;;;;;;;;;1730657;81;21020;-68
2022/10/13 13:11:01;;;;;;;11.55;4.28;;;;;;;;;;1723626;81;21018;-67
2022/10/13 13:13:28;;;;;;;15.15;5.83;;;;;;;;;;1712268;81;21044;-68
2022/10/13 13:16:13;;;;;;;10.15;4.67;;;;;;;;;;1718979;81;21115;-69
2022/10/13 13:18:41;;;;;;;12.73;4.40;;;;;;;;;;1718390;81;21004;-68
2022/10/13 13:21:08;;;;;;;8.23;3.72;;;;;;;;;;1721039;81;21437;-66
2022/10/13 13:23:34;;;;;;;11.55;4.45;;;;;;;;;;1721110;81;21506;-67
2022/10/13 13:26:04;;;;;;;16.48;5.90;;;;;;;;;;1719188;81;21001;-68
2022/10/13 13:28:31;;;;;;;14.30;4.30;;;;;;;;;;1719697;81;21107;-68
2022/10/13 13:30:57;;;;;;;10.45;3.98;;;;;;;;;;1721016;81;21111;-68
2022/10/13 13:33:24;;;;;;;10.45;4.50;;;;;;;;;;1725257;81;21036;-69
2022/10/13 13:35:52;;;;;;;12.37;4.33;;;;;;;;;;1726757;81;21075;-69
2022/10/13 13:38:18;;;;;;;14.03;4.45;;;;;;;;;;1725130;82;21519;-69
2022/10/13 13:40:44;;;;;;;9.48;4.12;;;;;;;;;;1730114;82;21044;-69
2022/10/13 13:43:11;;;;;;;9.95;3.95;;;;;;;;;;1732436;81;21551;-71
2022/10/13 13:45:37;;;;;;;11.30;4.10;;;;;;;;;;1727023;81;21056;-69
2022/10/13 13:48:06;;;;;;;8.45;3.77;;;;;;;;;;1721353;82;21095;-68
2022/10/13 13:50:34;;;;;;;17.82;8.38;;;;;;;;;;1663199;85;21089;-70
2022/10/13 13:53:00;;;;;;;11.20;5.05;;;;;;;;;;1673545;85;21108;-70
2022/10/13 13:55:26;;;;;;;10.25;4.08;;;;;;;;;;1663312;85;21167;-68
2022/10/13 13:57:54;;;;;;;9.63;3.75;;;;;;;;;;1669776;84;21100;-69
2022/10/13 14:00:20;;;;;;;8.95;4.25;;;;;;;;;;1667255;85;21096;-69
2022/10/13 14:02:48;;;;;;;9.05;3.77;;;;;;;;;;1667068;85;21544;-69
2022/10/13 14:05:14;;;;;;;10.10;4.33;;;;;;;;;;1665860;85;21101;-69
2022/10/13 14:07:40;;;;;;;10.15;4.30;;;;;;;;;;1670651;85;21014;-70
2022/10/13 14:10:07;;;;;;;9.70;4.28;;;;;;;;;;1675547;85;21033;-68
2022/10/13 14:12:36;;;;;;;11.35;4.58;;;;;;;;;;1700159;83;21202;-68
2022/10/13 14:15:04;;;;;;;7.75;3.60;;;;;;;;;;1691115;84;21597;-70
2022/10/13 14:17:31;;;;;;;9.40;3.92;;;;;;;;;;1708899;83;21425;-67
2022/10/13 14:19:57;;;;;;;10.20;4.33;;;;;;;;;;1666284;84;21050;-66
2022/10/13 14:22:23;;;;;;;15.63;4.53;;;;;;;;;;1664255;85;21020;-67
2022/10/13 14:24:50;;;;;;;8.35;3.72;;;;;;;;;;1689005;83;21048;-68
2022/10/13 14:27:16;;;;;;;8.38;3.75;;;;;;;;;;1691496;84;21029;-68
2022/10/13 14:29:42;;;;;;;9.38;4.10;;;;;;;;;;1693115;84;20992;-68
2022/10/13 14:32:08;;;;;;;8.75;4.12;;;;;;;;;;1694869;84;21080;-68
2022/10/13 14:34:34;;;;;;;11.57;4.30;;;;;;;;;;1691451;83;21055;-67
2022/10/13 14:37:01;;;;;;;10.88;3.90;;;;;;;;;;1666358;85;21674;-69
2022/10/13 14:39:27;;;;;;;7.83;3.90;;;;;;;;;;1676211;85;21006;-68
2022/10/13 14:41:53;;;;;;;10.28;4.00;;;;;;;;;;1673646;85;21082;-70